Florence, South Carolina
Current Conditions -  °F | °C
As of 12:53 PM on Sunday 25 Jan 2015 (Local Time) from KFLO Reporting Station
Clear Clear  
Wind Chill: 56°   Ceiling: Unl
Heat Index: 56°   Visibility: 10mi
Dew Point: 32°   Wind: 9mph
Humidity: 40%   Direction: 180°S
Pressure: 29.92"   Gusts: NA
Location:  34.19°N, 79.77°W
Report Text: KFLO 251753Z 18008KT 10SM CLR 13/00 A2992 RMK AO2 SLP132 T01330000 10139 21011 58017 $
Loading
Personal Weather Stations






























Interactive Weather Map New forecast layout! Learn more

10-Day Weather Forecast

Advertisements
Track Severe Weather on mobile